Historique des stations

Station météo de Colombiers

Altitude de la station : 182 m







Données météorologiques pour le 29/11/2022
Date
Heure
Températures Humidité Point de rosée Vitesse
du vent
Direction Rafales Windchill Pression Pluviométrie
Cumul
Date
Heure
Températures Humidité Point de rosée Vitesse
du vent
Direction Rafales Windchill Pression Pluviométrie
Cumul
29/11/2022 15:407.6 °C93 %6.6 °C2 km/hNNO8 km/h01020 hPa0.0 mm
29/11/2022 15:207.7 °C92 %6.4 °C2 km/hONO10 km/h01020 hPa0.0 mm
29/11/2022 15:107.7 °C92 %6.5 °C1 km/hONO5 km/h01020 hPa0.0 mm
29/11/2022 14:507.7 °C92 %6.4 °C3 km/hONO10 km/h01020 hPa0.0 mm
29/11/2022 14:407.7 °C93 %6.6 °C3 km/hONO6 km/h01020 hPa0.0 mm
29/11/2022 14:207.6 °C93 %6.6 °C3 km/hONO6 km/h01020 hPa0.0 mm
29/11/2022 14:107.4 °C94 %6.5 °C4 km/hO11 km/h01020 hPa0.0 mm
29/11/2022 13:507.4 °C93 %6.3 °C2 km/hONO5 km/h01020 hPa0.0 mm
29/11/2022 13:247.3 °C93 %6.3 °C5 km/hO11 km/h01020 hPa0.0 mm
29/11/2022 13:047.3 °C94 %6.4 °C3 km/hO11 km/h01020 hPa0.0 mm
29/11/2022 12:547.2 °C93 %6.2 °C5 km/hOSO11 km/h01020 hPa0.0 mm
29/11/2022 12:347.3 °C94 %6.4 °C5 km/hO11 km/h01020 hPa0.0 mm
29/11/2022 12:247.2 °C95 %6.5 °C2 km/hOSO10 km/h01020 hPa0.0 mm
29/11/2022 12:046.9 °C95 %6.2 °C5 km/hO11 km/h01020 hPa0.0 mm
29/11/2022 11:546.8 °C95 %6 °C6 km/hO13 km/h01020 hPa0.0 mm
29/11/2022 11:346.7 °C95 %5.9 °C5 km/hO13 km/h01020 hPa0.0 mm
29/11/2022 11:246.7 °C96 %6.1 °C-OSO6 km/h01020 hPa0.0 mm
29/11/2022 11:046.6 °C96 %6 °C1 km/hONO5 km/h01020 hPa0.0 mm
29/11/2022 10:546.4 °C96 %5.8 °C1 km/hO6 km/h01020 hPa0.0 mm
29/11/2022 10:346.2 °C96 %5.6 °C1 km/hO5 km/h01020 hPa0.0 mm
29/11/2022 10:246.1 °C96 %5.5 °C1 km/hONO5 km/h01020 hPa0.0 mm
29/11/2022 10:046 °C97 %5.6 °C2 km/hO11 km/h01020 hPa0.0 mm
29/11/2022 10:025.9 °C97 %5.4 °C2 km/hO11 km/h01019 hPa0.0 mm
29/11/2022 09:505.7 °C97 %5.2 °C3 km/hO11 km/h01019 hPa0.0 mm
29/11/2022 09:405.6 °C97 %5.2 °C1 km/hOSO5 km/h01019 hPa0.0 mm
29/11/2022 09:205.5 °C97 %5.1 °C4 km/hOSO8 km/h01019 hPa0.0 mm
29/11/2022 09:105.4 °C97 %5 °C1 km/hOSO6 km/h01019 hPa0.0 mm
29/11/2022 08:505.3 °C97 %4.8 °C-OSO3 km/h01019 hPa0.0 mm
29/11/2022 08:405.1 °C97 %4.7 °C---01019 hPa0.0 mm
29/11/2022 08:205.2 °C96 %4.6 °C2 km/hO6 km/h01019 hPa0.0 mm
29/11/2022 08:105.2 °C96 %4.6 °C4 km/hOSO10 km/h01018 hPa0.0 mm
29/11/2022 07:505.4 °C96 %4.8 °C3 km/hOSO5 km/h01018 hPa0.0 mm
29/11/2022 07:405.4 °C96 %4.9 °C4 km/hO8 km/h01018 hPa0.0 mm
29/11/2022 07:205.6 °C96 %5 °C3 km/hO10 km/h01018 hPa0.0 mm
29/11/2022 07:105.5 °C96 %4.9 °C4 km/hOSO8 km/h01018 hPa0.0 mm
29/11/2022 06:505.4 °C96 %4.9 °C4 km/hOSO8 km/h01018 hPa0.0 mm
29/11/2022 06:405.4 °C96 %4.8 °C4 km/hO6 km/h01018 hPa0.0 mm
29/11/2022 06:205.4 °C96 %4.9 °C4 km/hOSO8 km/h01018 hPa0.0 mm
29/11/2022 06:105.4 °C97 %5 °C3 km/hO6 km/h01018 hPa0.0 mm
29/11/2022 05:505.3 °C97 %4.8 °C3 km/hO6 km/h01017 hPa0.0 mm
29/11/2022 05:405.1 °C97 %4.6 °C1 km/hOSO3 km/h01018 hPa0.0 mm
29/11/2022 05:205.2 °C96 %4.6 °C2 km/hOSO5 km/h01017 hPa0.0 mm
29/11/2022 05:105.4 °C96 %4.8 °C3 km/hOSO6 km/h01017 hPa0.0 mm
29/11/2022 04:505.6 °C96 %5 °C3 km/hOSO6 km/h01017 hPa0.0 mm
29/11/2022 04:405.7 °C96 %5.1 °C1 km/hOSO5 km/h01017 hPa0.0 mm
29/11/2022 04:205.8 °C97 %5.3 °C2 km/hOSO6 km/h01017 hPa0.0 mm
29/11/2022 04:105.7 °C96 %5.1 °C1 km/hOSO6 km/h01017 hPa0.0 mm
29/11/2022 03:505.8 °C96 %5.2 °C1 km/hOSO5 km/h01017 hPa0.0 mm
29/11/2022 03:405.9 °C96 %5.4 °C3 km/hOSO6 km/h01017 hPa0.0 mm
29/11/2022 03:206.1 °C96 %5.5 °C4 km/hOSO8 km/h01017 hPa0.0 mm
29/11/2022 03:106.1 °C96 %5.5 °C2 km/hOSO6 km/h01017 hPa0.0 mm
29/11/2022 02:505.9 °C96 %5.4 °C1 km/hSO6 km/h01017 hPa0.0 mm
29/11/2022 02:406 °C96 %5.4 °C1 km/hSO5 km/h01017 hPa0.0 mm
29/11/2022 02:206.2 °C96 %5.6 °C3 km/hOSO6 km/h01017 hPa0.0 mm
29/11/2022 02:106.3 °C96 %5.7 °C4 km/hOSO6 km/h01017 hPa0.0 mm
29/11/2022 01:506.3 °C96 %5.7 °C3 km/hOSO6 km/h01017 hPa0.0 mm
29/11/2022 01:406.3 °C96 %5.7 °C4 km/hOSO8 km/h01017 hPa0.0 mm
29/11/2022 01:206.2 °C96 %5.6 °C1 km/hSO5 km/h01017 hPa0.0 mm
29/11/2022 01:106.2 °C96 %5.6 °C2 km/hOSO6 km/h01017 hPa0.0 mm
29/11/2022 00:406.3 °C95 %5.6 °C1 km/hO5 km/h01017 hPa4.2 mm
29/11/2022 00:206.3 °C95 %5.6 °C4 km/hOSO11 km/h01017 hPa4.2 mm
29/11/2022 00:106.3 °C95 %5.6 °C5 km/hOSO10 km/h01017 hPa4.2 mm


Minima :

Température : 5.1 °C
Humidité : 92 %
Point de rosée : 4.6 °C
Vent moyen : 1 km/h
Windchill : 0
Pression atm. : 1017 hPa
Maxima :

Température : 7.7 °C
Humidité : 97 %
Point de rosée : 6.6 °C
Vent moyen : 6 km/h
Windchill : 0
Pression atm. : 1020 hPa
Rafales max : 13 km/h
Cumul de pluie sur 24H : 4.2 mm

Colombiers est une commune du département Cher (18).
La station météorologique du réseau de l'association la plus proche de Colombiers est celle de Culan



Icône Facebook Association Météo Centre Icône Twitter Association Météo Centre Icône Chaîne Youtube Association Météo Centre Icône contact Association Météo Centre Icône Insta Association Météo Centre